createdAt,value
2024-05-09T00:02:07.960Z,9.95
2024-05-09T00:06:15.300Z,9.85
2024-05-09T00:10:29.097Z,9.75
2024-05-09T00:14:43.132Z,9.65
2024-05-09T00:18:51.025Z,9.56
2024-05-09T00:22:58.774Z,9.49
2024-05-09T00:27:11.273Z,9.42
2024-05-09T00:31:20.355Z,9.34
2024-05-09T00:35:27.785Z,9.26
2024-05-09T00:39:35.126Z,9.20
2024-05-09T00:43:42.245Z,9.13
2024-05-09T00:47:50.091Z,9.05
2024-05-09T00:51:58.851Z,9.00
2024-05-09T00:56:09.339Z,8.94
2024-05-09T01:00:26.517Z,8.89
2024-05-09T01:04:38.769Z,8.88
2024-05-09T01:08:45.964Z,8.82
2024-05-09T01:12:52.948Z,8.77
2024-05-09T01:17:00.133Z,8.70
2024-05-09T01:21:09.680Z,8.59
2024-05-09T01:25:17.075Z,8.47
2024-05-09T01:29:24.536Z,8.39
2024-05-09T01:33:33.742Z,8.29
2024-05-09T01:37:42.108Z,8.22
2024-05-09T01:41:49.406Z,8.15
2024-05-09T01:45:56.710Z,8.08
2024-05-09T01:50:06.656Z,8.03
2024-05-09T01:54:15.906Z,8.01
2024-05-09T01:58:23.987Z,7.95
2024-05-09T02:02:31.741Z,7.91
2024-05-09T02:06:43.618Z,7.86
2024-05-09T02:10:51.647Z,7.80
2024-05-09T02:14:59.404Z,7.73
2024-05-09T02:19:07.219Z,7.64
2024-05-09T02:23:14.648Z,7.56
2024-05-09T02:27:22.384Z,7.47
2024-05-09T02:31:29.697Z,7.34
2024-05-09T02:35:38.221Z,7.25
2024-05-09T02:39:45.422Z,7.22
2024-05-09T02:43:52.047Z,7.19
2024-05-09T02:48:00.208Z,7.14
2024-05-09T02:52:08.880Z,7.11
2024-05-09T02:56:17.229Z,7.06
2024-05-09T03:00:30.123Z,6.97
2024-05-09T03:04:46.459Z,6.86
2024-05-09T03:08:53.866Z,6.77
2024-05-09T03:13:01.213Z,6.69
2024-05-09T03:17:08.793Z,6.64
2024-05-09T03:21:16.343Z,6.62
2024-05-09T03:25:23.392Z,6.63
2024-05-09T03:29:30.515Z,6.64
2024-05-09T03:33:39.868Z,6.60
2024-05-09T03:37:47.063Z,6.55
2024-05-09T03:41:54.466Z,6.51
2024-05-09T03:46:02.005Z,6.36
2024-05-09T03:50:18.183Z,6.23
2024-05-09T03:54:32.816Z,6.20
2024-05-09T03:58:39.868Z,6.22
2024-05-09T04:02:49.238Z,6.27
2024-05-09T04:06:57.163Z,6.38
2024-05-09T04:11:04.149Z,6.49
2024-05-09T04:15:13.613Z,6.59
2024-05-09T04:19:20.923Z,6.64
2024-05-09T04:23:28.343Z,6.69
2024-05-09T04:27:36.080Z,6.74
2024-05-09T04:31:43.674Z,6.79
2024-05-09T04:35:50.920Z,6.83
2024-05-09T04:39:58.629Z,6.91
2024-05-09T04:44:05.596Z,7.04
2024-05-09T04:48:13.168Z,7.19
2024-05-09T04:52:20.909Z,7.32
2024-05-09T04:56:28.156Z,7.44
2024-05-09T05:00:37.592Z,7.55
2024-05-09T05:04:45.839Z,7.71
2024-05-09T05:08:53.493Z,7.88
2024-05-09T05:13:19.866Z,8.10
2024-05-09T05:17:28.140Z,8.39
2024-05-09T05:21:35.136Z,8.70
2024-05-09T05:25:42.493Z,9.04
2024-05-09T05:29:49.823Z,9.41
2024-05-09T05:33:56.943Z,9.83
2024-05-09T05:38:03.992Z,10.17
2024-05-09T05:42:11.831Z,10.34
2024-05-09T05:46:19.399Z,10.61
2024-05-09T05:50:32.843Z,10.93
2024-05-09T05:54:44.072Z,11.14
2024-05-09T05:58:51.788Z,11.30
2024-05-09T06:02:58.690Z,11.61
2024-05-09T06:07:06.351Z,11.91
2024-05-09T06:11:13.620Z,12.09
2024-05-09T06:15:21.402Z,12.33
2024-05-09T06:19:29.768Z,12.57
2024-05-09T06:23:36.957Z,12.74
2024-05-09T06:27:44.904Z,12.96
2024-05-09T06:31:52.273Z,13.08
2024-05-09T06:36:00.380Z,13.20
2024-05-09T06:40:09.943Z,13.24
2024-05-09T06:44:17.601Z,13.37
2024-05-09T06:48:25.197Z,13.50
2024-05-09T06:52:33.091Z,13.61
2024-05-09T06:56:41.751Z,13.73
2024-05-09T07:00:49.110Z,13.93
2024-05-09T07:04:57.683Z,14.18
2024-05-09T07:09:05.433Z,14.38
2024-05-09T07:13:14.166Z,14.52
2024-05-09T07:17:21.904Z,14.65
2024-05-09T07:21:28.918Z,14.86
2024-05-09T07:25:36.083Z,14.90
2024-05-09T07:29:44.020Z,15.09
2024-05-09T07:33:51.409Z,15.22
2024-05-09T07:37:59.767Z,15.40
2024-05-09T07:42:07.311Z,15.44
2024-05-09T07:54:35.994Z,15.65
2024-05-09T07:58:44.021Z,15.71
2024-05-09T08:02:51.168Z,15.76
2024-05-09T08:06:58.654Z,15.84
2024-05-09T08:11:07.217Z,15.90
2024-05-09T08:15:15.017Z,15.93
2024-05-09T08:19:22.861Z,15.95
2024-05-09T08:23:30.051Z,16.03
2024-05-09T08:27:37.215Z,16.10
2024-05-09T08:31:44.875Z,16.13
2024-05-09T08:35:51.680Z,16.16
2024-05-09T08:40:00.610Z,16.13
2024-05-09T08:44:08.029Z,16.17
2024-05-09T08:48:16.482Z,16.23
2024-05-09T08:52:24.200Z,16.34
2024-05-09T08:56:35.319Z,16.36
2024-05-09T09:00:44.394Z,16.42
2024-05-09T09:04:58.119Z,16.47
2024-05-09T09:09:07.142Z,16.53
2024-05-09T09:13:15.020Z,16.64
2024-05-09T09:17:22.669Z,16.75
2024-05-09T09:21:30.389Z,16.79
2024-05-09T09:25:40.309Z,16.78
2024-05-09T09:29:47.090Z,16.84
2024-05-09T09:33:54.505Z,16.85
2024-05-09T09:38:04.708Z,16.98
2024-05-09T09:42:13.481Z,17.10
2024-05-09T09:46:22.929Z,17.19
2024-05-09T09:50:34.459Z,17.28
2024-05-09T09:54:43.265Z,17.35
2024-05-09T09:58:51.222Z,17.40
2024-05-09T10:02:58.364Z,17.43
2024-05-09T10:07:09.580Z,17.52
2024-05-09T10:11:22.029Z,17.63
2024-05-09T10:15:29.904Z,17.79
2024-05-09T10:19:37.165Z,17.80
2024-05-09T10:23:57.168Z,17.70
2024-05-09T10:28:05.129Z,17.61
2024-05-09T10:32:13.088Z,17.56
2024-05-09T10:36:25.090Z,17.69
2024-05-09T10:40:33.020Z,17.97
2024-05-09T10:44:43.853Z,18.24
2024-05-09T10:48:52.278Z,18.29
2024-05-09T10:52:59.707Z,18.40
2024-05-09T10:57:07.989Z,18.60
2024-05-09T11:01:15.458Z,18.66
2024-05-09T11:05:23.917Z,18.45
2024-05-09T11:09:33.095Z,18.39
2024-05-09T11:13:41.316Z,18.34
2024-05-09T11:17:48.813Z,18.49
2024-05-09T11:21:57.112Z,18.69
2024-05-09T11:26:04.559Z,18.73
2024-05-09T11:30:29.525Z,18.80
2024-05-09T11:34:41.756Z,18.78
2024-05-09T11:38:49.207Z,18.85
2024-05-09T11:42:56.648Z,18.91
2024-05-09T11:47:04.264Z,18.97
2024-05-09T11:51:11.470Z,19.09
2024-05-09T11:55:19.114Z,19.18
2024-05-09T11:59:26.288Z,19.30
2024-05-09T12:03:33.952Z,19.48
2024-05-09T12:07:43.377Z,19.63
2024-05-09T12:11:50.154Z,19.60
2024-05-09T12:15:57.179Z,19.69
2024-05-09T12:20:07.075Z,19.87
2024-05-09T12:24:18.454Z,19.91
2024-05-09T12:28:26.680Z,19.82
2024-05-09T12:32:33.787Z,19.63
2024-05-09T12:36:40.906Z,19.50
2024-05-09T12:40:48.880Z,19.61
2024-05-09T12:44:56.235Z,19.80
2024-05-09T12:49:04.231Z,19.70
2024-05-09T12:53:12.437Z,19.51
2024-05-09T12:57:21.619Z,19.33
2024-05-09T13:01:28.720Z,19.18
2024-05-09T13:05:36.696Z,19.07
2024-05-09T13:09:43.835Z,18.97
2024-05-09T13:13:50.931Z,19.03
2024-05-09T13:18:01.928Z,18.97
2024-05-09T13:22:10.826Z,19.17
2024-05-09T13:26:17.837Z,19.43
2024-05-09T13:30:34.371Z,19.79
2024-05-09T13:34:49.841Z,19.70
2024-05-09T13:38:57.655Z,19.44
2024-05-09T13:43:05.110Z,19.12
2024-05-09T13:47:14.792Z,18.97
2024-05-09T13:51:22.050Z,18.71
2024-05-09T13:55:29.353Z,18.60
2024-05-09T13:59:36.424Z,18.79
2024-05-09T14:03:43.564Z,18.93
2024-05-09T14:07:51.664Z,19.12
2024-05-09T14:11:59.250Z,19.15
2024-05-09T14:16:06.973Z,19.28
2024-05-09T14:20:22.921Z,19.39
2024-05-09T14:24:36.116Z,19.42
2024-05-09T14:28:43.638Z,19.44
2024-05-09T14:32:51.044Z,19.44
2024-05-09T14:36:58.886Z,19.49
2024-05-09T14:41:06.143Z,19.45
2024-05-09T14:45:14.037Z,19.63
2024-05-09T14:49:22.974Z,19.65
2024-05-09T14:53:30.052Z,19.64
2024-05-09T14:57:37.909Z,19.62
2024-05-09T15:01:45.371Z,19.63
2024-05-09T15:05:52.568Z,19.66
2024-05-09T15:10:01.170Z,19.70
2024-05-09T15:14:08.552Z,19.63
2024-05-09T15:18:16.140Z,19.62
2024-05-09T15:22:24.456Z,19.53
2024-05-09T15:26:31.535Z,19.51
2024-05-09T15:30:39.623Z,19.55
2024-05-09T15:34:48.309Z,19.58
2024-05-09T15:38:56.301Z,19.64
2024-05-09T15:43:06.516Z,19.71
2024-05-09T15:47:14.247Z,19.64
2024-05-09T15:51:21.193Z,19.54
2024-05-09T15:55:33.309Z,19.51
2024-05-09T15:59:40.532Z,19.56
2024-05-09T16:03:47.933Z,19.48
2024-05-09T16:07:55.681Z,19.43
2024-05-09T16:12:02.856Z,19.40
2024-05-09T16:16:10.968Z,19.37
2024-05-09T16:20:29.388Z,19.33
2024-05-09T16:24:45.166Z,19.33
2024-05-09T16:28:52.119Z,19.31
2024-05-09T16:32:59.195Z,19.24
2024-05-09T16:37:13.435Z,19.15
2024-05-09T16:41:22.083Z,19.11
2024-05-09T16:45:30.290Z,19.03
2024-05-09T16:49:37.304Z,18.98
2024-05-09T16:53:44.680Z,18.93
2024-05-09T16:57:52.855Z,18.90
2024-05-09T17:02:00.092Z,18.85
2024-05-09T17:06:08.668Z,18.82
2024-05-09T17:10:26.154Z,18.80
2024-05-09T17:14:36.657Z,18.77
2024-05-09T17:18:43.931Z,18.67
2024-05-09T17:22:50.537Z,18.51
2024-05-09T17:26:58.047Z,18.37
2024-05-09T17:31:07.328Z,18.27
2024-05-09T17:35:15.201Z,18.19
2024-05-09T17:39:22.509Z,18.08
2024-05-09T17:43:29.817Z,17.98
2024-05-09T17:47:37.944Z,17.94
2024-05-09T17:51:53.946Z,17.91
2024-05-09T17:56:01.519Z,17.75
2024-05-09T18:00:11.882Z,17.61
2024-05-09T18:04:20.378Z,17.55
2024-05-09T18:08:27.360Z,17.44
2024-05-09T18:12:34.496Z,17.32
2024-05-09T18:16:41.481Z,17.22
2024-05-09T18:20:48.799Z,17.11
2024-05-09T18:24:55.836Z,17.01
2024-05-09T18:29:04.166Z,16.90
2024-05-09T18:33:12.405Z,16.75
2024-05-09T18:37:20.081Z,16.59
2024-05-09T18:41:27.170Z,16.40
2024-05-09T18:45:34.034Z,16.15
2024-05-09T18:49:41.490Z,15.93
2024-05-09T18:53:52.405Z,15.73
2024-05-09T18:58:00.929Z,15.55
2024-05-09T19:02:09.652Z,15.33
2024-05-09T19:06:18.405Z,15.13
2024-05-09T19:10:32.265Z,14.96
2024-05-09T19:14:42.086Z,14.82
2024-05-09T19:18:51.087Z,14.69
2024-05-09T19:22:58.423Z,14.57
2024-05-09T19:27:06.172Z,14.47
2024-05-09T19:31:13.481Z,14.39
2024-05-09T19:35:20.127Z,14.30
2024-05-09T19:39:27.345Z,14.21
2024-05-09T19:43:35.980Z,14.10
2024-05-09T19:47:43.709Z,13.94
2024-05-09T19:51:52.124Z,13.79
2024-05-09T19:56:00.939Z,13.62
2024-05-09T20:00:17.840Z,13.48
2024-05-09T20:04:30.320Z,13.34
2024-05-09T20:08:37.784Z,13.20
2024-05-09T20:12:47.336Z,13.08
2024-05-09T20:16:54.862Z,12.98
2024-05-09T20:21:04.345Z,12.87
2024-05-09T20:25:13.400Z,12.78
2024-05-09T20:29:21.113Z,12.69
2024-05-09T20:33:28.993Z,12.55
2024-05-09T20:37:35.829Z,12.40
2024-05-09T20:41:46.328Z,12.25
2024-05-09T20:45:54.095Z,12.10
2024-05-09T20:50:01.775Z,11.99
2024-05-09T20:54:09.598Z,11.89
2024-05-09T20:58:17.173Z,11.77
2024-05-09T21:02:25.296Z,11.67
2024-05-09T21:06:32.840Z,11.55
2024-05-09T21:10:40.576Z,11.44
2024-05-09T21:14:48.216Z,11.34
2024-05-09T21:18:55.596Z,11.22
2024-05-09T21:23:03.277Z,11.14
2024-05-09T21:27:12.785Z,11.07
2024-05-09T21:31:20.087Z,10.99
2024-05-09T21:35:27.906Z,10.92
2024-05-09T21:39:35.442Z,10.83
2024-05-09T21:43:42.127Z,10.76
2024-05-09T21:47:49.420Z,10.72
2024-05-09T21:51:56.912Z,10.66
2024-05-09T21:56:04.490Z,10.61
2024-05-09T22:00:28.167Z,10.56
2024-05-09T22:04:42.991Z,10.49
2024-05-09T22:08:50.513Z,10.45
2024-05-09T22:12:58.412Z,10.40
2024-05-09T22:17:05.821Z,10.36
2024-05-09T22:21:12.734Z,10.31
2024-05-09T22:25:19.937Z,10.26
2024-05-09T22:29:26.926Z,10.17
2024-05-09T22:33:34.344Z,10.04
2024-05-09T22:37:41.898Z,9.94
2024-05-09T22:41:49.181Z,9.85
2024-05-09T22:45:56.221Z,9.77
2024-05-09T22:50:04.430Z,9.69
2024-05-09T22:54:14.853Z,9.58
2024-05-09T22:58:22.106Z,9.53
2024-05-09T23:02:29.975Z,9.50
2024-05-09T23:06:37.334Z,9.50
2024-05-09T23:10:44.820Z,9.51
2024-05-09T23:14:52.012Z,9.50
2024-05-09T23:19:00.884Z,9.44
2024-05-09T23:23:08.845Z,9.31
2024-05-09T23:27:16.598Z,9.18
2024-05-09T23:31:23.261Z,9.10
2024-05-09T23:35:32.642Z,9.02
2024-05-09T23:39:39.972Z,8.91
2024-05-09T23:43:47.101Z,8.84
2024-05-09T23:47:55.716Z,8.81
2024-05-09T23:52:03.088Z,8.78
2024-05-09T23:56:10.964Z,8.72
